sensor_id;sensor_type;location;lat;lon;timestamp;P1;durP1;ratioP1;P2;durP2;ratioP2
21046;SDS011;10682;50.874;3.656;2024-03-25T00:01:02;10.37;;;5.67;;
21046;SDS011;10682;50.874;3.656;2024-03-25T00:03:28;11.67;;;5.57;;
21046;SDS011;10682;50.874;3.656;2024-03-25T00:05:55;9.03;;;5.43;;
21046;SDS011;10682;50.874;3.656;2024-03-25T00:08:22;11.27;;;5.37;;
21046;SDS011;10682;50.874;3.656;2024-03-25T00:10:48;10.40;;;5.20;;
21046;SDS011;10682;50.874;3.656;2024-03-25T00:13:14;7.63;;;4.57;;
21046;SDS011;10682;50.874;3.656;2024-03-25T00:15:40;8.50;;;5.03;;
21046;SDS011;10682;50.874;3.656;2024-03-25T00:18:07;8.40;;;4.93;;
21046;SDS011;10682;50.874;3.656;2024-03-25T00:20:33;10.13;;;4.90;;
21046;SDS011;10682;50.874;3.656;2024-03-25T00:22:59;7.47;;;4.47;;
21046;SDS011;10682;50.874;3.656;2024-03-25T00:25:26;12.40;;;5.37;;
21046;SDS011;10682;50.874;3.656;2024-03-25T00:27:52;7.17;;;4.17;;
21046;SDS011;10682;50.874;3.656;2024-03-25T00:30:19;7.13;;;4.27;;
21046;SDS011;10682;50.874;3.656;2024-03-25T00:32:45;12.97;;;4.67;;
21046;SDS011;10682;50.874;3.656;2024-03-25T00:35:11;11.90;;;4.80;;
21046;SDS011;10682;50.874;3.656;2024-03-25T00:37:37;12.57;;;5.13;;
21046;SDS011;10682;50.874;3.656;2024-03-25T00:40:04;10.73;;;4.90;;
21046;SDS011;10682;50.874;3.656;2024-03-25T00:42:32;12.67;;;5.47;;
21046;SDS011;10682;50.874;3.656;2024-03-25T00:45:00;13.23;;;5.70;;
21046;SDS011;10682;50.874;3.656;2024-03-25T00:47:26;14.93;;;5.53;;
21046;SDS011;10682;50.874;3.656;2024-03-25T00:49:52;16.57;;;5.60;;
21046;SDS011;10682;50.874;3.656;2024-03-25T00:52:19;10.30;;;6.17;;
21046;SDS011;10682;50.874;3.656;2024-03-25T00:54:47;13.27;;;5.37;;
21046;SDS011;10682;50.874;3.656;2024-03-25T00:57:17;15.07;;;5.90;;
21046;SDS011;10682;50.874;3.656;2024-03-25T01:05:26;11.60;;;6.37;;
21046;SDS011;10682;50.874;3.656;2024-03-25T01:07:53;13.87;;;7.03;;
21046;SDS011;10682;50.874;3.656;2024-03-25T01:10:19;15.83;;;6.33;;
21046;SDS011;10682;50.874;3.656;2024-03-25T01:12:46;14.13;;;6.73;;
21046;SDS011;10682;50.874;3.656;2024-03-25T01:15:12;12.60;;;5.83;;
21046;SDS011;10682;50.874;3.656;2024-03-25T01:17:38;10.37;;;5.80;;
21046;SDS011;10682;50.874;3.656;2024-03-25T01:20:05;11.37;;;5.40;;
21046;SDS011;10682;50.874;3.656;2024-03-25T01:22:32;9.47;;;5.57;;
21046;SDS011;10682;50.874;3.656;2024-03-25T01:24:58;11.73;;;5.70;;
21046;SDS011;10682;50.874;3.656;2024-03-25T01:27:24;11.10;;;5.53;;
21046;SDS011;10682;50.874;3.656;2024-03-25T01:29:50;11.70;;;6.00;;
21046;SDS011;10682;50.874;3.656;2024-03-25T01:32:16;10.27;;;5.97;;
21046;SDS011;10682;50.874;3.656;2024-03-25T01:34:42;11.00;;;5.97;;
21046;SDS011;10682;50.874;3.656;2024-03-25T01:37:09;16.30;;;6.00;;
21046;SDS011;10682;50.874;3.656;2024-03-25T01:39:36;12.27;;;5.63;;
21046;SDS011;10682;50.874;3.656;2024-03-25T01:42:04;9.33;;;5.50;;
21046;SDS011;10682;50.874;3.656;2024-03-25T01:44:30;13.50;;;5.43;;
21046;SDS011;10682;50.874;3.656;2024-03-25T01:46:57;11.50;;;5.47;;
21046;SDS011;10682;50.874;3.656;2024-03-25T01:49:23;14.43;;;5.47;;
21046;SDS011;10682;50.874;3.656;2024-03-25T01:51:50;12.60;;;5.40;;
21046;SDS011;10682;50.874;3.656;2024-03-25T01:54:16;9.83;;;5.87;;
21046;SDS011;10682;50.874;3.656;2024-03-25T01:56:43;15.40;;;6.47;;
21046;SDS011;10682;50.874;3.656;2024-03-25T01:59:12;15.60;;;6.53;;
21046;SDS011;10682;50.874;3.656;2024-03-25T02:01:43;16.30;;;6.60;;
21046;SDS011;10682;50.874;3.656;2024-03-25T02:04:11;22.13;;;6.13;;
21046;SDS011;10682;50.874;3.656;2024-03-25T02:06:37;14.87;;;6.40;;
21046;SDS011;10682;50.874;3.656;2024-03-25T02:09:07;15.23;;;6.77;;
21046;SDS011;10682;50.874;3.656;2024-03-25T02:11:34;15.10;;;6.80;;
21046;SDS011;10682;50.874;3.656;2024-03-25T02:14:01;12.70;;;6.23;;
21046;SDS011;10682;50.874;3.656;2024-03-25T02:16:27;13.83;;;6.03;;
21046;SDS011;10682;50.874;3.656;2024-03-25T02:18:53;13.50;;;6.20;;
21046;SDS011;10682;50.874;3.656;2024-03-25T02:21:19;12.07;;;5.63;;
21046;SDS011;10682;50.874;3.656;2024-03-25T02:23:47;13.47;;;6.23;;
21046;SDS011;10682;50.874;3.656;2024-03-25T02:26:16;11.80;;;6.03;;
21046;SDS011;10682;50.874;3.656;2024-03-25T02:28:42;14.10;;;6.00;;
21046;SDS011;10682;50.874;3.656;2024-03-25T02:31:08;13.43;;;6.33;;
21046;SDS011;10682;50.874;3.656;2024-03-25T02:33:34;12.67;;;6.10;;
21046;SDS011;10682;50.874;3.656;2024-03-25T02:36:00;16.03;;;6.37;;
21046;SDS011;10682;50.874;3.656;2024-03-25T02:38:27;12.33;;;6.27;;
21046;SDS011;10682;50.874;3.656;2024-03-25T02:40:54;10.03;;;5.40;;
21046;SDS011;10682;50.874;3.656;2024-03-25T02:43:21;17.33;;;6.30;;
21046;SDS011;10682;50.874;3.656;2024-03-25T02:48:52;13.30;;;6.10;;
21046;SDS011;10682;50.874;3.656;2024-03-25T02:54:05;14.23;;;5.73;;
21046;SDS011;10682;50.874;3.656;2024-03-25T02:56:31;17.03;;;6.30;;
21046;SDS011;10682;50.874;3.656;2024-03-25T02:58:59;20.50;;;6.63;;
21046;SDS011;10682;50.874;3.656;2024-03-25T03:01:25;16.33;;;6.40;;
21046;SDS011;10682;50.874;3.656;2024-03-25T03:03:52;15.07;;;6.70;;
21046;SDS011;10682;50.874;3.656;2024-03-25T03:06:18;18.20;;;6.77;;
21046;SDS011;10682;50.874;3.656;2024-03-25T03:08:44;17.47;;;7.03;;
21046;SDS011;10682;50.874;3.656;2024-03-25T03:11:10;16.00;;;6.60;;
21046;SDS011;10682;50.874;3.656;2024-03-25T03:13:36;25.50;;;6.70;;
21046;SDS011;10682;50.874;3.656;2024-03-25T03:16:02;20.13;;;6.77;;
21046;SDS011;10682;50.874;3.656;2024-03-25T03:18:29;13.80;;;6.00;;
21046;SDS011;10682;50.874;3.656;2024-03-25T03:20:55;18.07;;;6.50;;
21046;SDS011;10682;50.874;3.656;2024-03-25T03:23:22;16.70;;;6.60;;
21046;SDS011;10682;50.874;3.656;2024-03-25T03:25:48;15.53;;;6.40;;
21046;SDS011;10682;50.874;3.656;2024-03-25T03:28:15;15.60;;;5.93;;
21046;SDS011;10682;50.874;3.656;2024-03-25T03:30:42;14.87;;;5.63;;
21046;SDS011;10682;50.874;3.656;2024-03-25T03:33:09;16.90;;;7.20;;
21046;SDS011;10682;50.874;3.656;2024-03-25T03:35:35;21.57;;;7.23;;
21046;SDS011;10682;50.874;3.656;2024-03-25T03:38:01;16.50;;;6.50;;
21046;SDS011;10682;50.874;3.656;2024-03-25T03:40:28;19.63;;;8.07;;
21046;SDS011;10682;50.874;3.656;2024-03-25T03:42:55;16.70;;;6.20;;
21046;SDS011;10682;50.874;3.656;2024-03-25T03:45:23;18.90;;;7.53;;
21046;SDS011;10682;50.874;3.656;2024-03-25T03:47:50;14.07;;;6.23;;
21046;SDS011;10682;50.874;3.656;2024-03-25T03:50:16;16.73;;;7.00;;
21046;SDS011;10682;50.874;3.656;2024-03-25T03:52:42;18.57;;;6.87;;
21046;SDS011;10682;50.874;3.656;2024-03-25T03:55:09;22.27;;;6.90;;
21046;SDS011;10682;50.874;3.656;2024-03-25T03:57:35;14.97;;;6.50;;
21046;SDS011;10682;50.874;3.656;2024-03-25T04:00:02;15.23;;;6.10;;
21046;SDS011;10682;50.874;3.656;2024-03-25T04:02:30;17.13;;;6.70;;
21046;SDS011;10682;50.874;3.656;2024-03-25T04:04:57;13.93;;;6.60;;
21046;SDS011;10682;50.874;3.656;2024-03-25T04:07:23;24.47;;;6.33;;
21046;SDS011;10682;50.874;3.656;2024-03-25T04:09:55;21.90;;;6.90;;
21046;SDS011;10682;50.874;3.656;2024-03-25T04:12:23;24.40;;;7.77;;
21046;SDS011;10682;50.874;3.656;2024-03-25T04:14:49;24.63;;;7.13;;
21046;SDS011;10682;50.874;3.656;2024-03-25T04:17:20;17.83;;;6.97;;
21046;SDS011;10682;50.874;3.656;2024-03-25T04:19:48;24.27;;;7.30;;
21046;SDS011;10682;50.874;3.656;2024-03-25T04:22:15;26.07;;;8.60;;
21046;SDS011;10682;50.874;3.656;2024-03-25T04:24:45;26.43;;;10.63;;
21046;SDS011;10682;50.874;3.656;2024-03-25T04:27:12;39.30;;;10.43;;
21046;SDS011;10682;50.874;3.656;2024-03-25T04:29:38;38.83;;;11.13;;
21046;SDS011;10682;50.874;3.656;2024-03-25T04:32:04;30.83;;;9.57;;
21046;SDS011;10682;50.874;3.656;2024-03-25T04:40:35;32.87;;;8.73;;
21046;SDS011;10682;50.874;3.656;2024-03-25T04:43:01;26.57;;;9.30;;
21046;SDS011;10682;50.874;3.656;2024-03-25T04:45:28;39.13;;;10.10;;
21046;SDS011;10682;50.874;3.656;2024-03-25T04:47:54;30.23;;;10.37;;
21046;SDS011;10682;50.874;3.656;2024-03-25T04:50:20;36.57;;;10.57;;
21046;SDS011;10682;50.874;3.656;2024-03-25T04:52:46;39.20;;;11.87;;
21046;SDS011;10682;50.874;3.656;2024-03-25T04:55:13;40.20;;;11.00;;
21046;SDS011;10682;50.874;3.656;2024-03-25T04:57:39;39.77;;;11.90;;
21046;SDS011;10682;50.874;3.656;2024-03-25T05:00:05;38.77;;;11.83;;
21046;SDS011;10682;50.874;3.656;2024-03-25T05:02:32;41.40;;;13.17;;
21046;SDS011;10682;50.874;3.656;2024-03-25T05:04:58;43.77;;;11.83;;
21046;SDS011;10682;50.874;3.656;2024-03-25T05:07:24;41.50;;;12.50;;
21046;SDS011;10682;50.874;3.656;2024-03-25T05:09:50;53.80;;;13.03;;
21046;SDS011;10682;50.874;3.656;2024-03-25T05:12:17;49.53;;;15.20;;
21046;SDS011;10682;50.874;3.656;2024-03-25T05:14:43;45.80;;;13.50;;
21046;SDS011;10682;50.874;3.656;2024-03-25T05:17:09;58.87;;;15.23;;
21046;SDS011;10682;50.874;3.656;2024-03-25T05:19:35;52.87;;;14.50;;
21046;SDS011;10682;50.874;3.656;2024-03-25T05:22:01;62.73;;;16.07;;
21046;SDS011;10682;50.874;3.656;2024-03-25T05:24:27;52.73;;;13.83;;
21046;SDS011;10682;50.874;3.656;2024-03-25T05:26:53;74.33;;;15.97;;
21046;SDS011;10682;50.874;3.656;2024-03-25T05:29:20;67.00;;;16.40;;
21046;SDS011;10682;50.874;3.656;2024-03-25T05:32:01;73.03;;;15.87;;
21046;SDS011;10682;50.874;3.656;2024-03-25T05:34:28;64.23;;;16.23;;
21046;SDS011;10682;50.874;3.656;2024-03-25T05:36:55;66.77;;;16.00;;
21046;SDS011;10682;50.874;3.656;2024-03-25T05:39:21;69.43;;;16.00;;
21046;SDS011;10682;50.874;3.656;2024-03-25T05:41:47;73.03;;;15.67;;
21046;SDS011;10682;50.874;3.656;2024-03-25T05:44:14;81.50;;;16.03;;
21046;SDS011;10682;50.874;3.656;2024-03-25T05:46:40;72.97;;;16.97;;
21046;SDS011;10682;50.874;3.656;2024-03-25T05:49:06;72.20;;;15.93;;
21046;SDS011;10682;50.874;3.656;2024-03-25T05:51:42;80.97;;;16.03;;
21046;SDS011;10682;50.874;3.656;2024-03-25T05:54:09;79.63;;;15.23;;
21046;SDS011;10682;50.874;3.656;2024-03-25T05:56:35;66.57;;;14.00;;
21046;SDS011;10682;50.874;3.656;2024-03-25T05:59:02;73.47;;;15.57;;
21046;SDS011;10682;50.874;3.656;2024-03-25T06:01:28;83.40;;;15.60;;
21046;SDS011;10682;50.874;3.656;2024-03-25T06:03:54;75.90;;;15.53;;
21046;SDS011;10682;50.874;3.656;2024-03-25T06:06:20;67.13;;;15.07;;
21046;SDS011;10682;50.874;3.656;2024-03-25T06:08:47;71.80;;;14.83;;
21046;SDS011;10682;50.874;3.656;2024-03-25T06:11:13;72.80;;;16.17;;
21046;SDS011;10682;50.874;3.656;2024-03-25T06:13:40;57.63;;;14.40;;
21046;SDS011;10682;50.874;3.656;2024-03-25T06:16:06;55.83;;;14.03;;
21046;SDS011;10682;50.874;3.656;2024-03-25T06:18:32;55.43;;;13.13;;
21046;SDS011;10682;50.874;3.656;2024-03-25T06:23:58;54.03;;;11.83;;
21046;SDS011;10682;50.874;3.656;2024-03-25T06:26:34;41.93;;;11.37;;
21046;SDS011;10682;50.874;3.656;2024-03-25T06:29:00;40.07;;;11.87;;
21046;SDS011;10682;50.874;3.656;2024-03-25T06:31:26;37.43;;;10.80;;
21046;SDS011;10682;50.874;3.656;2024-03-25T06:34:10;33.53;;;9.73;;
21046;SDS011;10682;50.874;3.656;2024-03-25T06:36:48;45.23;;;11.67;;
21046;SDS011;10682;50.874;3.656;2024-03-25T06:39:14;43.00;;;11.17;;
21046;SDS011;10682;50.874;3.656;2024-03-25T06:41:41;46.17;;;11.17;;
21046;SDS011;10682;50.874;3.656;2024-03-25T06:44:07;44.13;;;12.00;;
21046;SDS011;10682;50.874;3.656;2024-03-25T06:46:34;45.77;;;11.77;;
21046;SDS011;10682;50.874;3.656;2024-03-25T06:49:00;40.43;;;11.73;;
21046;SDS011;10682;50.874;3.656;2024-03-25T06:51:26;47.77;;;10.80;;
21046;SDS011;10682;50.874;3.656;2024-03-25T06:53:52;42.00;;;11.63;;
21046;SDS011;10682;50.874;3.656;2024-03-25T06:56:19;45.87;;;10.47;;
21046;SDS011;10682;50.874;3.656;2024-03-25T06:58:45;36.03;;;10.73;;
21046;SDS011;10682;50.874;3.656;2024-03-25T07:01:11;37.60;;;10.13;;
21046;SDS011;10682;50.874;3.656;2024-03-25T07:03:37;42.10;;;10.10;;
21046;SDS011;10682;50.874;3.656;2024-03-25T07:06:04;43.53;;;10.27;;
21046;SDS011;10682;50.874;3.656;2024-03-25T07:08:31;41.27;;;10.10;;
21046;SDS011;10682;50.874;3.656;2024-03-25T07:10:57;42.17;;;8.87;;
21046;SDS011;10682;50.874;3.656;2024-03-25T07:13:24;44.03;;;10.00;;
21046;SDS011;10682;50.874;3.656;2024-03-25T07:15:50;40.67;;;10.03;;
21046;SDS011;10682;50.874;3.656;2024-03-25T07:18:16;37.00;;;9.60;;
21046;SDS011;10682;50.874;3.656;2024-03-25T07:20:43;42.57;;;9.60;;
21046;SDS011;10682;50.874;3.656;2024-03-25T07:23:10;44.00;;;9.53;;
21046;SDS011;10682;50.874;3.656;2024-03-25T07:25:36;40.23;;;9.80;;
21046;SDS011;10682;50.874;3.656;2024-03-25T07:28:03;45.17;;;9.07;;
21046;SDS011;10682;50.874;3.656;2024-03-25T07:30:30;32.27;;;8.43;;
21046;SDS011;10682;50.874;3.656;2024-03-25T07:32:56;30.10;;;8.77;;
21046;SDS011;10682;50.874;3.656;2024-03-25T07:35:24;29.87;;;8.70;;
21046;SDS011;10682;50.874;3.656;2024-03-25T07:37:50;33.43;;;8.60;;
21046;SDS011;10682;50.874;3.656;2024-03-25T07:40:21;34.10;;;8.50;;
21046;SDS011;10682;50.874;3.656;2024-03-25T07:42:48;27.97;;;7.77;;
21046;SDS011;10682;50.874;3.656;2024-03-25T07:45:15;29.77;;;7.57;;
21046;SDS011;10682;50.874;3.656;2024-03-25T07:47:41;30.63;;;7.77;;
21046;SDS011;10682;50.874;3.656;2024-03-25T07:50:08;29.63;;;8.03;;
21046;SDS011;10682;50.874;3.656;2024-03-25T07:52:35;31.70;;;8.70;;
21046;SDS011;10682;50.874;3.656;2024-03-25T07:55:05;34.07;;;9.30;;
21046;SDS011;10682;50.874;3.656;2024-03-25T07:57:33;35.07;;;8.30;;
21046;SDS011;10682;50.874;3.656;2024-03-25T08:00:00;27.27;;;8.93;;
21046;SDS011;10682;50.874;3.656;2024-03-25T08:02:31;39.30;;;9.23;;
21046;SDS011;10682;50.874;3.656;2024-03-25T08:05:00;39.03;;;9.33;;
21046;SDS011;10682;50.874;3.656;2024-03-25T08:07:28;29.83;;;9.27;;
21046;SDS011;10682;50.874;3.656;2024-03-25T08:09:54;29.17;;;8.83;;
21046;SDS011;10682;50.874;3.656;2024-03-25T08:12:20;33.00;;;9.07;;
21046;SDS011;10682;50.874;3.656;2024-03-25T08:14:46;28.00;;;8.20;;
21046;SDS011;10682;50.874;3.656;2024-03-25T08:17:12;28.07;;;7.60;;
21046;SDS011;10682;50.874;3.656;2024-03-25T08:19:38;30.03;;;9.97;;
21046;SDS011;10682;50.874;3.656;2024-03-25T08:22:04;25.03;;;7.90;;
21046;SDS011;10682;50.874;3.656;2024-03-25T08:24:33;28.10;;;8.00;;
21046;SDS011;10682;50.874;3.656;2024-03-25T08:26:59;28.80;;;7.87;;
21046;SDS011;10682;50.874;3.656;2024-03-25T08:29:25;27.83;;;8.40;;
21046;SDS011;10682;50.874;3.656;2024-03-25T08:31:51;27.33;;;7.93;;
21046;SDS011;10682;50.874;3.656;2024-03-25T08:34:17;22.47;;;7.73;;
21046;SDS011;10682;50.874;3.656;2024-03-25T08:36:43;22.07;;;8.23;;
21046;SDS011;10682;50.874;3.656;2024-03-25T08:39:09;19.67;;;7.53;;
21046;SDS011;10682;50.874;3.656;2024-03-25T08:41:36;22.23;;;8.17;;
21046;SDS011;10682;50.874;3.656;2024-03-25T08:44:02;23.87;;;7.77;;
21046;SDS011;10682;50.874;3.656;2024-03-25T08:46:31;20.00;;;7.67;;
21046;SDS011;10682;50.874;3.656;2024-03-25T08:49:03;23.30;;;7.67;;
21046;SDS011;10682;50.874;3.656;2024-03-25T08:51:29;20.77;;;7.30;;
21046;SDS011;10682;50.874;3.656;2024-03-25T08:53:55;22.53;;;7.97;;
21046;SDS011;10682;50.874;3.656;2024-03-25T08:56:21;27.87;;;7.87;;
21046;SDS011;10682;50.874;3.656;2024-03-25T08:58:48;23.60;;;8.27;;
21046;SDS011;10682;50.874;3.656;2024-03-25T09:01:14;24.37;;;7.60;;
21046;SDS011;10682;50.874;3.656;2024-03-25T09:03:41;29.37;;;8.30;;
21046;SDS011;10682;50.874;3.656;2024-03-25T09:06:10;26.20;;;8.13;;
21046;SDS011;10682;50.874;3.656;2024-03-25T09:08:36;21.03;;;7.83;;
21046;SDS011;10682;50.874;3.656;2024-03-25T09:11:22;21.60;;;8.23;;
21046;SDS011;10682;50.874;3.656;2024-03-25T09:13:50;18.97;;;6.90;;
21046;SDS011;10682;50.874;3.656;2024-03-25T09:16:17;22.87;;;7.70;;
21046;SDS011;10682;50.874;3.656;2024-03-25T09:18:44;23.50;;;7.53;;
21046;SDS011;10682;50.874;3.656;2024-03-25T09:21:10;22.20;;;7.43;;
21046;SDS011;10682;50.874;3.656;2024-03-25T09:23:38;24.83;;;7.67;;
21046;SDS011;10682;50.874;3.656;2024-03-25T09:26:04;29.57;;;7.60;;
21046;SDS011;10682;50.874;3.656;2024-03-25T09:28:30;18.60;;;7.20;;
21046;SDS011;10682;50.874;3.656;2024-03-25T09:30:56;24.83;;;7.20;;
21046;SDS011;10682;50.874;3.656;2024-03-25T09:33:22;22.47;;;7.63;;
21046;SDS011;10682;50.874;3.656;2024-03-25T09:35:49;28.50;;;8.13;;
21046;SDS011;10682;50.874;3.656;2024-03-25T09:38:15;22.00;;;7.60;;
21046;SDS011;10682;50.874;3.656;2024-03-25T09:40:41;26.33;;;7.37;;
21046;SDS011;10682;50.874;3.656;2024-03-25T09:43:20;21.43;;;7.67;;
21046;SDS011;10682;50.874;3.656;2024-03-25T09:45:53;21.63;;;6.87;;
21046;SDS011;10682;50.874;3.656;2024-03-25T09:48:21;27.03;;;6.80;;
21046;SDS011;10682;50.874;3.656;2024-03-25T09:50:48;18.63;;;6.60;;
21046;SDS011;10682;50.874;3.656;2024-03-25T09:53:15;24.57;;;7.13;;
21046;SDS011;10682;50.874;3.656;2024-03-25T09:55:42;21.57;;;6.40;;
21046;SDS011;10682;50.874;3.656;2024-03-25T10:01:12;20.00;;;7.37;;
21046;SDS011;10682;50.874;3.656;2024-03-25T10:03:41;18.73;;;6.63;;
21046;SDS011;10682;50.874;3.656;2024-03-25T10:06:07;20.13;;;6.23;;
21046;SDS011;10682;50.874;3.656;2024-03-25T10:08:35;27.23;;;7.17;;
21046;SDS011;10682;50.874;3.656;2024-03-25T10:11:02;16.03;;;5.60;;
21046;SDS011;10682;50.874;3.656;2024-03-25T10:13:28;19.33;;;6.50;;
21046;SDS011;10682;50.874;3.656;2024-03-25T10:15:55;20.67;;;6.47;;
21046;SDS011;10682;50.874;3.656;2024-03-25T10:18:21;17.13;;;6.17;;
21046;SDS011;10682;50.874;3.656;2024-03-25T10:20:48;18.07;;;6.10;;
21046;SDS011;10682;50.874;3.656;2024-03-25T10:23:15;19.80;;;6.33;;
21046;SDS011;10682;50.874;3.656;2024-03-25T10:25:47;20.47;;;6.93;;
21046;SDS011;10682;50.874;3.656;2024-03-25T10:28:14;17.67;;;6.27;;
21046;SDS011;10682;50.874;3.656;2024-03-25T10:30:40;17.17;;;6.37;;
21046;SDS011;10682;50.874;3.656;2024-03-25T10:33:07;25.70;;;6.23;;
21046;SDS011;10682;50.874;3.656;2024-03-25T10:35:34;16.50;;;5.70;;
21046;SDS011;10682;50.874;3.656;2024-03-25T10:38:03;15.93;;;5.33;;
21046;SDS011;10682;50.874;3.656;2024-03-25T10:40:36;11.87;;;4.93;;
21046;SDS011;10682;50.874;3.656;2024-03-25T10:43:08;19.90;;;5.60;;
21046;SDS011;10682;50.874;3.656;2024-03-25T10:45:47;13.30;;;5.20;;
21046;SDS011;10682;50.874;3.656;2024-03-25T10:48:17;16.20;;;5.15;;
21046;SDS011;10682;50.874;3.656;2024-03-25T10:50:50;14.82;;;4.75;;
21046;SDS011;10682;50.874;3.656;2024-03-25T10:53:17;14.55;;;5.00;;
21046;SDS011;10682;50.874;3.656;2024-03-25T10:55:47;20.83;;;5.50;;
21046;SDS011;10682;50.874;3.656;2024-03-25T10:58:14;14.53;;;4.60;;
21046;SDS011;10682;50.874;3.656;2024-03-25T11:00:42;13.48;;;4.65;;
21046;SDS011;10682;50.874;3.656;2024-03-25T11:03:10;14.90;;;4.85;;
21046;SDS011;10682;50.874;3.656;2024-03-25T11:05:37;13.47;;;4.67;;
21046;SDS011;10682;50.874;3.656;2024-03-25T11:08:17;14.98;;;4.57;;
21046;SDS011;10682;50.874;3.656;2024-03-25T11:10:43;11.80;;;4.30;;
21046;SDS011;10682;50.874;3.656;2024-03-25T11:13:14;10.43;;;3.60;;
21046;SDS011;10682;50.874;3.656;2024-03-25T11:15:47;12.25;;;4.38;;
21046;SDS011;10682;50.874;3.656;2024-03-25T11:18:17;11.60;;;4.55;;
21046;SDS011;10682;50.874;3.656;2024-03-25T11:21:00;11.35;;;3.92;;
21046;SDS011;10682;50.874;3.656;2024-03-25T11:23:43;15.50;;;3.93;;
21046;SDS011;10682;50.874;3.656;2024-03-25T11:26:22;11.60;;;3.80;;
21046;SDS011;10682;50.874;3.656;2024-03-25T11:28:52;13.10;;;4.22;;
21046;SDS011;10682;50.874;3.656;2024-03-25T11:31:23;11.33;;;4.00;;
21046;SDS011;10682;50.874;3.656;2024-03-25T11:33:51;13.15;;;3.70;;
21046;SDS011;10682;50.874;3.656;2024-03-25T11:36:18;13.25;;;3.28;;
21046;SDS011;10682;50.874;3.656;2024-03-25T11:39:00;11.23;;;3.53;;
21046;SDS011;10682;50.874;3.656;2024-03-25T11:41:34;10.95;;;3.30;;
21046;SDS011;10682;50.874;3.656;2024-03-25T11:44:11;9.45;;;2.78;;
21046;SDS011;10682;50.874;3.656;2024-03-25T11:49:55;9.25;;;3.22;;
21046;SDS011;10682;50.874;3.656;2024-03-25T11:52:21;11.45;;;3.22;;
21046;SDS011;10682;50.874;3.656;2024-03-25T11:54:54;8.98;;;3.25;;
21046;SDS011;10682;50.874;3.656;2024-03-25T11:57:21;10.80;;;3.43;;
21046;SDS011;10682;50.874;3.656;2024-03-25T11:59:48;11.67;;;3.67;;
21046;SDS011;10682;50.874;3.656;2024-03-25T12:02:18;10.40;;;3.10;;
21046;SDS011;10682;50.874;3.656;2024-03-25T12:04:44;7.27;;;2.80;;
21046;SDS011;10682;50.874;3.656;2024-03-25T12:07:11;9.50;;;3.13;;
21046;SDS011;10682;50.874;3.656;2024-03-25T12:09:38;8.23;;;3.13;;
21046;SDS011;10682;50.874;3.656;2024-03-25T12:12:23;7.47;;;2.90;;
21046;SDS011;10682;50.874;3.656;2024-03-25T12:14:51;8.63;;;3.20;;
21046;SDS011;10682;50.874;3.656;2024-03-25T12:17:18;9.20;;;3.30;;
21046;SDS011;10682;50.874;3.656;2024-03-25T12:20:02;8.32;;;2.80;;
21046;SDS011;10682;50.874;3.656;2024-03-25T12:22:38;7.78;;;2.80;;
21046;SDS011;10682;50.874;3.656;2024-03-25T12:25:06;8.30;;;2.90;;
21046;SDS011;10682;50.874;3.656;2024-03-25T12:27:35;9.63;;;3.35;;
21046;SDS011;10682;50.874;3.656;2024-03-25T12:30:07;7.53;;;3.15;;
21046;SDS011;10682;50.874;3.656;2024-03-25T12:32:41;11.88;;;3.55;;
21046;SDS011;10682;50.874;3.656;2024-03-25T12:35:12;8.53;;;2.97;;
21046;SDS011;10682;50.874;3.656;2024-03-25T12:37:43;10.63;;;3.30;;
21046;SDS011;10682;50.874;3.656;2024-03-25T12:40:12;9.20;;;2.93;;
21046;SDS011;10682;50.874;3.656;2024-03-25T12:42:52;7.18;;;2.53;;
21046;SDS011;10682;50.874;3.656;2024-03-25T12:45:21;9.07;;;2.58;;
21046;SDS011;10682;50.874;3.656;2024-03-25T12:47:48;4.68;;;2.17;;
21046;SDS011;10682;50.874;3.656;2024-03-25T12:50:18;9.15;;;2.45;;
21046;SDS011;10682;50.874;3.656;2024-03-25T12:52:44;7.47;;;2.17;;
21046;SDS011;10682;50.874;3.656;2024-03-25T12:55:10;8.25;;;2.75;;
21046;SDS011;10682;50.874;3.656;2024-03-25T12:57:36;8.40;;;2.40;;
21046;SDS011;10682;50.874;3.656;2024-03-25T13:00:03;4.82;;;2.17;;
21046;SDS011;10682;50.874;3.656;2024-03-25T13:02:33;9.35;;;2.50;;
21046;SDS011;10682;50.874;3.656;2024-03-25T13:05:00;9.30;;;2.30;;
21046;SDS011;10682;50.874;3.656;2024-03-25T13:07:26;7.60;;;2.20;;
21046;SDS011;10682;50.874;3.656;2024-03-25T13:09:52;9.40;;;2.00;;
21046;SDS011;10682;50.874;3.656;2024-03-25T13:12:18;6.53;;;2.05;;
21046;SDS011;10682;50.874;3.656;2024-03-25T13:14:44;7.28;;;2.58;;
21046;SDS011;10682;50.874;3.656;2024-03-25T13:17:10;8.57;;;2.90;;
21046;SDS011;10682;50.874;3.656;2024-03-25T13:19:36;8.32;;;3.08;;
21046;SDS011;10682;50.874;3.656;2024-03-25T13:22:04;5.95;;;2.25;;
21046;SDS011;10682;50.874;3.656;2024-03-25T13:24:31;6.40;;;1.92;;
21046;SDS011;10682;50.874;3.656;2024-03-25T13:26:57;11.25;;;2.58;;
21046;SDS011;10682;50.874;3.656;2024-03-25T13:29:24;9.30;;;2.40;;
21046;SDS011;10682;50.874;3.656;2024-03-25T13:31:50;7.03;;;2.43;;
21046;SDS011;10682;50.874;3.656;2024-03-25T13:37:36;9.93;;;3.10;;
21046;SDS011;10682;50.874;3.656;2024-03-25T13:40:02;10.65;;;3.42;;
21046;SDS011;10682;50.874;3.656;2024-03-25T13:42:31;12.15;;;3.55;;
21046;SDS011;10682;50.874;3.656;2024-03-25T13:44:57;8.88;;;3.20;;
21046;SDS011;10682;50.874;3.656;2024-03-25T13:47:23;8.45;;;3.20;;
21046;SDS011;10682;50.874;3.656;2024-03-25T13:49:49;8.90;;;2.83;;
21046;SDS011;10682;50.874;3.656;2024-03-25T13:52:25;10.10;;;3.00;;
21046;SDS011;10682;50.874;3.656;2024-03-25T13:54:51;9.27;;;3.13;;
21046;SDS011;10682;50.874;3.656;2024-03-25T13:57:18;13.52;;;3.35;;
21046;SDS011;10682;50.874;3.656;2024-03-25T13:59:44;9.57;;;3.00;;
21046;SDS011;10682;50.874;3.656;2024-03-25T14:02:10;13.57;;;3.00;;
21046;SDS011;10682;50.874;3.656;2024-03-25T14:04:36;10.80;;;3.23;;
21046;SDS011;10682;50.874;3.656;2024-03-25T14:07:02;7.47;;;2.50;;
21046;SDS011;10682;50.874;3.656;2024-03-25T14:09:28;7.27;;;2.17;;
21046;SDS011;10682;50.874;3.656;2024-03-25T14:11:54;5.60;;;1.80;;
21046;SDS011;10682;50.874;3.656;2024-03-25T14:14:21;5.35;;;2.40;;
21046;SDS011;10682;50.874;3.656;2024-03-25T14:16:47;10.32;;;2.38;;
21046;SDS011;10682;50.874;3.656;2024-03-25T14:19:13;5.50;;;2.13;;
21046;SDS011;10682;50.874;3.656;2024-03-25T14:21:39;8.45;;;2.72;;
21046;SDS011;10682;50.874;3.656;2024-03-25T14:24:06;5.32;;;2.25;;
21046;SDS011;10682;50.874;3.656;2024-03-25T14:26:33;4.28;;;1.80;;
21046;SDS011;10682;50.874;3.656;2024-03-25T14:28:59;7.57;;;1.80;;
21046;SDS011;10682;50.874;3.656;2024-03-25T14:31:25;5.60;;;2.15;;
21046;SDS011;10682;50.874;3.656;2024-03-25T14:33:54;6.47;;;2.03;;
21046;SDS011;10682;50.874;3.656;2024-03-25T14:36:20;6.13;;;1.73;;
21046;SDS011;10682;50.874;3.656;2024-03-25T14:38:48;8.57;;;1.90;;
21046;SDS011;10682;50.874;3.656;2024-03-25T14:41:18;6.07;;;1.90;;
21046;SDS011;10682;50.874;3.656;2024-03-25T14:43:46;7.07;;;1.80;;
21046;SDS011;10682;50.874;3.656;2024-03-25T14:46:14;5.82;;;1.90;;
21046;SDS011;10682;50.874;3.656;2024-03-25T14:48:40;6.93;;;2.05;;
21046;SDS011;10682;50.874;3.656;2024-03-25T14:51:06;8.05;;;2.20;;
21046;SDS011;10682;50.874;3.656;2024-03-25T14:53:32;5.93;;;2.00;;
21046;SDS011;10682;50.874;3.656;2024-03-25T14:55:58;8.18;;;2.13;;
21046;SDS011;10682;50.874;3.656;2024-03-25T14:58:24;4.95;;;1.60;;
21046;SDS011;10682;50.874;3.656;2024-03-25T15:00:50;3.78;;;1.88;;
21046;SDS011;10682;50.874;3.656;2024-03-25T15:03:17;5.57;;;1.83;;
21046;SDS011;10682;50.874;3.656;2024-03-25T15:05:43;9.15;;;1.95;;
21046;SDS011;10682;50.874;3.656;2024-03-25T15:08:09;10.00;;;2.07;;